Time;durP1;ratioP1;P1;durP2;ratioP2;P2;SDS_P1;SDS_P2;PMS_P1;PMS_P2;Temp;Humidity;BMP_temperature;BMP_pressure;BME280_temperature;BME280_humidity;BME280_pressure;Samples;Min_cycle;Max_cycle;Signal;HPM_P1;HPM_P2
2021/12/06 00:01:05;;;;;;;101.78;49.13;;;;;;;-0.13;97.10;100559.56;7396429;19;20018;-67
2021/12/06 00:03:39;;;;;;;96.40;48.10;;;;;;;-0.14;96.92;100555.25;7396341;19;20019;-67
2021/12/06 00:06:08;;;;;;;100.32;50.90;;;;;;;-0.16;97.02;100557.81;7398449;19;20027;-67
2021/12/06 00:08:36;;;;;;;96.03;49.45;;;;;;;-0.15;97.10;100561.25;7396281;19;20022;-67
2021/12/06 00:11:08;;;;;;;100.32;50.28;;;;;;;-0.17;97.00;100556.91;7397787;19;20022;-67
2021/12/06 00:13:37;;;;;;;95.78;48.38;;;;;;;-0.16;96.96;100562.97;7397303;19;20019;-67
2021/12/06 00:16:14;;;;;;;101.57;49.40;;;;;;;-0.18;97.23;100557.78;7395787;19;20081;-67
2021/12/06 00:18:43;;;;;;;99.03;49.55;;;;;;;-0.17;97.01;100564.66;7397803;19;20081;-67
2021/12/06 00:21:12;;;;;;;92.68;48.75;;;;;;;-0.18;97.16;100562.94;7395651;19;20019;-67
2021/12/06 00:23:42;;;;;;;97.15;48.15;;;;;;;-0.17;97.03;100567.22;7396680;19;20018;-67
2021/12/06 00:26:11;;;;;;;105.70;50.20;;;;;;;-0.17;97.26;100569.81;7397320;19;20027;-67
2021/12/06 00:28:42;;;;;;;101.13;47.22;;;;;;;-0.16;97.38;100578.44;7395337;19;20018;-67
2021/12/06 00:31:16;;;;;;;108.82;49.80;;;;;;;-0.14;97.44;100579.31;7395629;19;20022;-67
2021/12/06 00:33:47;;;;;;;99.43;48.65;;;;;;;-0.13;97.51;100575.91;7395196;19;20496;-67
2021/12/06 00:36:26;;;;;;;102.68;47.45;;;;;;;-0.10;97.45;100588.00;7397233;19;20018;-67
2021/12/06 00:38:55;;;;;;;100.18;45.72;;;;;;;-0.13;97.27;100583.63;7395600;19;20035;-67
2021/12/06 00:41:24;;;;;;;101.75;49.63;;;;;;;-0.11;97.39;100589.72;7396832;19;20031;-67
2021/12/06 00:43:52;;;;;;;95.45;48.92;;;;;;;-0.10;97.17;100590.56;7395852;19;20040;-67
2021/12/06 00:46:24;;;;;;;101.97;49.00;;;;;;;-0.11;97.43;100591.44;7397052;19;20369;-67
2021/12/06 00:48:52;;;;;;;96.78;47.55;;;;;;;-0.11;97.28;100588.84;7395282;19;20035;-67
2021/12/06 00:51:20;;;;;;;99.80;48.10;;;;;;;-0.11;97.43;100587.13;7394520;19;20378;-67
2021/12/06 00:53:48;;;;;;;107.75;51.35;;;;;;;-0.10;97.28;100582.84;7394451;19;20019;-67
2021/12/06 00:56:17;;;;;;;97.75;47.60;;;;;;;-0.10;97.61;100590.56;7395878;19;20019;-67
2021/12/06 00:58:45;;;;;;;98.25;45.97;;;;;;;-0.10;97.65;100588.00;7394601;19;20039;-67
2021/12/06 01:01:14;;;;;;;102.55;46.03;;;;;;;-0.09;97.51;100595.78;7396141;19;20025;-67
2021/12/06 01:03:46;;;;;;;102.18;48.78;;;;;;;-0.09;97.66;100600.94;7394425;19;20044;-67
2021/12/06 01:06:15;;;;;;;103.28;47.47;;;;;;;-0.08;97.51;100612.13;7396515;19;20014;-67
2021/12/06 01:08:44;;;;;;;98.00;46.50;;;;;;;-0.07;97.62;100609.56;7395446;19;20040;-67
2021/12/06 01:11:13;;;;;;;103.50;46.28;;;;;;;-0.05;97.45;100617.31;7395903;19;20018;-67
2021/12/06 01:13:42;;;;;;;99.65;48.13;;;;;;;-0.04;97.80;100613.91;7394722;19;20487;-67
2021/12/06 01:16:10;;;;;;;96.47;45.97;;;;;;;-0.04;97.73;100617.38;7395731;19;20018;-66
2021/12/06 01:18:39;;;;;;;100.15;46.85;;;;;;;-0.01;97.45;100626.88;7395674;19;20010;-67
2021/12/06 01:21:17;;;;;;;92.15;45.47;;;;;;;-0.02;97.58;100627.72;7395649;19;20019;-67
2021/12/06 01:23:53;;;;;;;98.85;46.08;;;;;;;-0.02;97.77;100625.13;7395068;19;20031;-67
2021/12/06 01:26:40;;;;;;;91.28;44.33;;;;;;;-0.02;97.50;100630.28;7393417;19;20483;-67
2021/12/06 01:29:35;;;;;;;95.97;44.28;;;;;;;-0.04;97.38;100639.69;7392801;19;20480;-67
2021/12/06 01:32:11;;;;;;;108.82;46.92;;;;;;;-0.03;97.44;100642.28;7394920;19;20541;-67
2021/12/06 01:40:06;;;;;;;109.75;49.58;;;;;;;-0.04;97.52;100655.16;7395363;19;20497;-67
2021/12/06 01:42:35;;;;;;;99.60;46.38;;;;;;;-0.03;97.59;100662.06;7395050;19;20011;-67
2021/12/06 01:45:04;;;;;;;90.50;42.70;;;;;;;-0.05;97.48;100664.63;7393124;19;20030;-67
2021/12/06 01:47:35;;;;;;;99.65;44.95;;;;;;;-0.02;97.42;100669.84;7394947;19;20019;-67
2021/12/06 01:50:08;;;;;;;97.88;44.75;;;;;;;-0.01;97.86;100665.56;7393410;19;20094;-66
2021/12/06 01:52:43;;;;;;;93.00;42.80;;;;;;;-0.01;97.41;100668.16;7395050;19;20015;-67
2021/12/06 01:55:14;;;;;;;86.05;40.90;;;;;;;0.01;97.48;100678.50;7393320;19;20018;-67
2021/12/06 01:57:43;;;;;;;94.75;44.22;;;;;;;0.02;97.49;100681.09;7395145;19;20014;-67
2021/12/06 02:00:15;;;;;;;92.40;44.42;;;;;;;0.03;97.66;100684.56;7394593;19;20027;-67
2021/12/06 02:02:43;;;;;;;87.70;40.88;;;;;;;0.02;97.51;100683.66;7395015;19;20014;-66
2021/12/06 02:05:12;;;;;;;83.43;41.65;;;;;;;0.03;97.73;100680.25;7392561;19;20019;-67
2021/12/06 02:07:43;;;;;;;85.65;42.75;;;;;;;0.04;97.62;100679.44;7399534;19;20028;-67
2021/12/06 02:10:12;;;;;;;88.70;42.08;;;;;;;0.05;97.69;100682.88;7399817;19;20018;-67
2021/12/06 02:12:41;;;;;;;93.68;43.25;;;;;;;0.04;97.71;100679.44;7403685;19;20110;-67
2021/12/06 02:15:24;;;;;;;86.53;42.58;;;;;;;0.06;97.68;100684.59;7398475;19;20456;-67
2021/12/06 02:18:02;;;;;;;87.97;42.22;;;;;;;0.06;97.67;100680.31;7401394;19;20391;-67
2021/12/06 02:20:36;;;;;;;85.40;41.47;;;;;;;0.08;97.40;100682.94;7398929;19;20464;-67
2021/12/06 02:23:07;;;;;;;79.93;39.95;;;;;;;0.08;97.34;100681.22;7400789;19;20547;-67
2021/12/06 02:25:35;;;;;;;80.88;38.75;;;;;;;0.07;97.42;100686.34;7399147;19;20022;-67
2021/12/06 02:28:03;;;;;;;83.47;39.90;;;;;;;0.08;97.53;100691.53;7401238;19;20367;-67
2021/12/06 02:30:32;;;;;;;79.85;38.78;;;;;;;0.09;97.51;100682.97;7397603;19;20370;-67
2021/12/06 02:33:00;;;;;;;83.90;41.58;;;;;;;0.12;97.77;100684.75;7400788;19;20027;-67
2021/12/06 02:35:29;;;;;;;75.43;39.10;;;;;;;0.11;97.71;100683.84;7401012;19;20018;-67
2021/12/06 02:37:57;;;;;;;79.03;39.40;;;;;;;0.12;97.67;100682.16;7400559;19;20018;-67
2021/12/06 02:40:31;;;;;;;84.28;41.80;;;;;;;0.13;97.37;100686.47;7397958;19;20019;-67
2021/12/06 02:43:02;;;;;;;73.80;38.17;;;;;;;0.12;97.13;100683.00;7400800;19;20018;-67
2021/12/06 02:45:31;;;;;;;77.20;40.90;;;;;;;0.12;97.33;100688.19;7400389;19;20426;-67
2021/12/06 02:48:02;;;;;;;79.65;40.92;;;;;;;0.12;97.38;100695.06;7400587;19;20011;-67
2021/12/06 02:50:35;;;;;;;80.57;40.95;;;;;;;0.12;97.34;100697.63;7398811;19;20376;-67
2021/12/06 02:53:03;;;;;;;79.30;39.40;;;;;;;0.11;97.50;100696.75;7400363;19;20019;-67
2021/12/06 02:55:36;;;;;;;83.38;40.13;;;;;;;0.11;97.22;100694.16;7397867;19;20022;-66
2021/12/06 02:58:16;;;;;;;81.32;40.22;;;;;;;0.10;97.36;100700.19;7400802;19;20015;-67
2021/12/06 03:00:50;;;;;;;87.38;41.78;;;;;;;0.09;96.73;100698.44;7400526;19;20010;-67
2021/12/06 03:03:20;;;;;;;80.07;39.33;;;;;;;0.05;96.96;100701.81;7399055;19;20480;-66
2021/12/06 03:05:52;;;;;;;78.85;39.58;;;;;;;0.05;97.15;100706.97;7397539;19;20022;-67
2021/12/06 03:08:39;;;;;;;81.78;41.38;;;;;;;0.05;97.28;100706.06;7399597;19;20389;-68
2021/12/06 03:11:12;;;;;;;78.05;39.38;;;;;;;0.03;97.58;100708.63;7398344;19;20070;-68
2021/12/06 03:13:41;;;;;;;78.80;40.00;;;;;;;0.06;97.55;100712.97;7399974;19;20483;-67
2021/12/06 03:16:09;;;;;;;82.85;40.08;;;;;;;0.07;97.48;100719.91;7400338;19;20483;-67
2021/12/06 03:18:38;;;;;;;77.25;39.40;;;;;;;0.08;97.64;100725.06;7396659;19;20035;-67
2021/12/06 03:21:07;;;;;;;76.93;40.67;;;;;;;0.08;97.69;100725.06;7399468;19;20031;-66
2021/12/06 03:23:35;;;;;;;83.50;41.45;;;;;;;0.05;97.31;100725.03;7398240;19;20455;-66
2021/12/06 03:26:03;;;;;;;80.28;40.03;;;;;;;0.09;97.32;100737.16;7399233;19;20014;-67
2021/12/06 03:28:37;;;;;;;73.80;38.80;;;;;;;0.09;97.63;100737.16;7399178;19;20030;-67
2021/12/06 03:31:06;;;;;;;78.22;36.85;;;;;;;0.08;97.47;100737.13;7395803;19;20024;-67
2021/12/06 03:33:35;;;;;;;77.60;38.25;;;;;;;0.10;97.68;100749.22;7398159;19;20019;-67
2021/12/06 03:36:03;;;;;;;77.75;39.58;;;;;;;0.10;97.76;100744.06;7396644;19;20014;-67
2021/12/06 03:38:32;;;;;;;73.20;38.72;;;;;;;0.12;97.74;100751.81;7398753;19;20027;-67
2021/12/06 03:41:00;;;;;;;78.00;40.90;;;;;;;0.13;97.55;100750.97;7398864;19;20014;-66
2021/12/06 03:43:28;;;;;;;73.60;38.33;;;;;;;0.12;97.46;100747.50;7398046;19;20035;-66
2021/12/06 03:45:59;;;;;;;78.78;39.38;;;;;;;0.12;97.74;100747.50;7398617;19;20022;-67
2021/12/06 03:48:27;;;;;;;75.13;38.08;;;;;;;0.13;97.59;100751.84;7398610;19;20025;-67
2021/12/06 03:50:55;;;;;;;76.43;39.53;;;;;;;0.14;97.32;100752.72;7396653;19;20014;-67
2021/12/06 03:53:24;;;;;;;76.80;40.05;;;;;;;0.13;97.43;100753.56;7396160;19;20015;-67
2021/12/06 03:55:52;;;;;;;73.40;37.83;;;;;;;0.13;97.59;100757.00;7397879;19;20479;-66
2021/12/06 03:58:20;;;;;;;73.88;38.10;;;;;;;0.13;97.56;100767.31;7396094;19;20031;-67
2021/12/06 04:00:49;;;;;;;76.05;40.78;;;;;;;0.12;97.60;100765.56;7398050;19;20025;-67
2021/12/06 04:03:21;;;;;;;71.30;38.70;;;;;;;0.13;97.61;100769.91;7398266;19;20479;-66
2021/12/06 04:05:50;;;;;;;69.88;37.75;;;;;;;0.14;97.30;100774.22;7396564;19;20031;-67
2021/12/06 04:08:18;;;;;;;71.57;38.22;;;;;;;0.12;97.36;100770.72;7395533;19;20532;-67
2021/12/06 04:10:46;;;;;;;68.10;37.20;;;;;;;0.14;97.19;100778.53;7394889;19;20484;-67
2021/12/06 04:13:14;;;;;;;70.35;38.40;;;;;;;0.12;97.13;100778.47;7397234;19;20046;-67
2021/12/06 04:15:44;;;;;;;65.55;37.58;;;;;;;0.12;97.40;100781.06;7395910;19;20031;-67
2021/12/06 04:18:13;;;;;;;69.18;39.15;;;;;;;0.11;97.31;100784.47;7395519;19;20018;-67
2021/12/06 04:20:44;;;;;;;66.32;38.10;;;;;;;0.10;96.88;100785.34;7396907;19;20406;-67
2021/12/06 04:23:14;;;;;;;66.93;36.70;;;;;;;0.09;97.17;100787.84;7397499;19;20031;-67
2021/12/06 04:25:42;;;;;;;71.63;38.92;;;;;;;0.07;96.68;100787.81;7396945;19;20468;-67
2021/12/06 04:28:14;;;;;;;61.88;35.47;;;;;;;0.04;96.26;100792.94;7395230;19;20025;-67
2021/12/06 04:30:43;;;;;;;72.15;38.80;;;;;;;0.02;96.51;100793.75;7392797;19;20055;-67
2021/12/06 04:33:13;;;;;;;68.32;36.85;;;;;;;-0.02;96.30;100795.38;7395330;19;20014;-66
2021/12/06 04:35:44;;;;;;;64.68;37.83;;;;;;;-0.05;96.49;100800.44;7397241;19;20015;-66
2021/12/06 04:38:13;;;;;;;59.72;35.95;;;;;;;-0.07;96.07;100802.13;7396957;19;20023;-67
2021/12/06 04:40:42;;;;;;;62.75;36.42;;;;;;;-0.08;96.47;100813.28;7396123;19;20018;-66
2021/12/06 04:43:11;;;;;;;62.50;36.60;;;;;;;-0.11;96.10;100820.97;7394850;19;20035;-67
2021/12/06 04:45:40;;;;;;;68.50;38.60;;;;;;;-0.15;95.73;100816.56;7395118;19;20025;-66
2021/12/06 04:48:09;;;;;;;65.93;36.97;;;;;;;-0.18;96.08;100818.25;7396221;19;20060;-67
2021/12/06 04:50:42;;;;;;;60.58;36.50;;;;;;;-0.22;95.43;100826.72;7395309;19;20040;-66
2021/12/06 04:53:16;;;;;;;63.35;37.20;;;;;;;-0.23;95.81;100829.28;7394044;19;20403;-66
2021/12/06 04:56:00;;;;;;;66.40;37.60;;;;;;;-0.25;95.75;100836.97;7396111;19;20022;-67
2021/12/06 04:58:31;;;;;;;65.72;35.92;;;;;;;-0.29;95.40;100832.59;7395006;19;20018;-67
2021/12/06 05:01:03;;;;;;;62.00;36.60;;;;;;;-0.29;95.49;100839.44;7394155;19;20022;-66
2021/12/06 05:03:33;;;;;;;65.93;37.72;;;;;;;-0.31;95.40;100846.28;7394971;19;20026;-67
2021/12/06 05:06:04;;;;;;;69.15;38.53;;;;;;;-0.34;95.59;100840.19;7393599;19;20018;-67
2021/12/06 05:08:41;;;;;;;70.70;38.78;;;;;;;-0.36;95.54;100835.84;7394209;19;20027;-67
2021/12/06 05:11:09;;;;;;;68.63;38.65;;;;;;;-0.37;95.63;100852.13;7394461;19;20022;-66
2021/12/06 05:13:43;;;;;;;72.57;40.67;;;;;;;-0.40;95.42;100852.06;7393441;19;20386;-67
2021/12/06 05:16:11;;;;;;;71.23;38.67;;;;;;;-0.42;95.85;100858.88;7396127;19;20014;-67
2021/12/06 05:18:40;;;;;;;66.65;39.60;;;;;;;-0.43;95.33;100863.19;7395555;19;20448;-67
2021/12/06 05:21:08;;;;;;;67.60;40.33;;;;;;;-0.45;95.72;100863.97;7395111;19;20018;-67
2021/12/06 05:23:40;;;;;;;68.13;38.47;;;;;;;-0.47;95.88;100858.75;7394725;19;20022;-67
2021/12/06 05:26:08;;;;;;;70.93;41.10;;;;;;;-0.46;95.29;100862.22;7394881;19;20370;-67
2021/12/06 05:28:44;;;;;;;68.05;39.35;;;;;;;-0.51;95.34;100856.94;7395286;19;20015;-67
2021/12/06 05:31:18;;;;;;;68.65;40.25;;;;;;;-0.48;95.78;100863.88;7393329;19;20091;-67
2021/12/06 05:33:51;;;;;;;70.22;39.15;;;;;;;-0.48;95.87;100866.47;7394570;19;20025;-67
2021/12/06 05:36:19;;;;;;;72.20;42.72;;;;;;;-0.47;96.12;100873.38;7395285;19;20040;-67
2021/12/06 05:38:51;;;;;;;68.40;40.30;;;;;;;-0.47;95.50;100875.94;7393172;19;20018;-67
2021/12/06 05:41:20;;;;;;;70.78;42.05;;;;;;;-0.47;95.66;100886.25;7398475;19;20022;-66
2021/12/06 05:43:48;;;;;;;72.22;41.80;;;;;;;-0.48;95.63;100887.97;7400839;19;20018;-67
2021/12/06 05:46:18;;;;;;;73.63;42.42;;;;;;;-0.51;95.62;100885.31;7401814;19;20022;-67
2021/12/06 05:48:46;;;;;;;71.80;41.13;;;;;;;-0.51;96.14;100891.31;7401683;19;20026;-66
2021/12/06 05:51:14;;;;;;;70.95;41.38;;;;;;;-0.51;95.91;100895.63;7399874;19;20035;-68
2021/12/06 05:53:42;;;;;;;73.90;42.08;;;;;;;-0.50;96.24;100900.81;7400464;19;20022;-68
2021/12/06 05:56:13;;;;;;;71.63;42.20;;;;;;;-0.50;96.36;100905.09;7401619;19;20032;-68
2021/12/06 05:58:41;;;;;;;73.22;41.20;;;;;;;-0.50;96.20;100908.53;7397914;19;20035;-68
2021/12/06 06:01:10;;;;;;;74.13;42.03;;;;;;;-0.49;96.11;100917.16;7396991;19;20366;-67
2021/12/06 06:03:38;;;;;;;74.35;40.83;;;;;;;-0.48;96.49;100911.19;7399062;19;20022;-68
2021/12/06 06:06:07;;;;;;;74.85;39.97;;;;;;;-0.47;96.61;100912.91;7397281;19;20015;-69
2021/12/06 06:08:35;;;;;;;75.22;41.22;;;;;;;-0.46;96.51;100916.38;7397616;19;20036;-68
2021/12/06 06:11:03;;;;;;;77.40;44.05;;;;;;;-0.47;96.15;100925.78;7396629;19;20061;-67
2021/12/06 06:13:34;;;;;;;74.40;41.83;;;;;;;-0.54;96.43;100911.88;7399856;19;20015;-67
2021/12/06 06:16:02;;;;;;;74.50;43.83;;;;;;;-0.47;96.11;100922.34;7401017;19;20015;-67
2021/12/06 06:18:30;;;;;;;74.97;42.33;;;;;;;-0.49;96.09;100932.63;7400829;19;20040;-68
2021/12/06 06:20:59;;;;;;;72.72;41.30;;;;;;;-0.50;96.63;100925.72;7399840;19;20481;-67
2021/12/06 06:23:28;;;;;;;68.93;39.97;;;;;;;-0.49;96.34;100924.88;7399535;19;20059;-67
2021/12/06 06:25:57;;;;;;;78.50;44.08;;;;;;;-0.52;96.30;100923.09;7400484;19;20022;-68
2021/12/06 06:28:25;;;;;;;74.90;40.70;;;;;;;-0.52;96.30;100928.25;7398070;19;20010;-67
2021/12/06 06:30:56;;;;;;;72.65;41.28;;;;;;;-0.51;96.60;100932.56;7398410;19;20018;-67
2021/12/06 06:33:24;;;;;;;74.47;42.38;;;;;;;-0.50;96.66;100942.03;7399356;19;20421;-68
2021/12/06 06:35:53;;;;;;;73.20;42.08;;;;;;;-0.50;96.64;100944.63;7399938;19;20015;-68
2021/12/06 06:38:22;;;;;;;76.50;43.08;;;;;;;-0.47;96.84;100950.69;7396466;19;20027;-68
2021/12/06 06:40:51;;;;;;;75.28;41.75;;;;;;;-0.46;96.57;100949.88;7396798;19;20018;-68
2021/12/06 06:43:20;;;;;;;73.20;42.13;;;;;;;-0.44;96.67;100951.66;7398426;19;20022;-67
2021/12/06 06:45:49;;;;;;;74.32;42.63;;;;;;;-0.44;96.48;100961.97;7400404;19;20035;-67
2021/12/06 06:48:20;;;;;;;75.03;42.08;;;;;;;-0.43;96.36;100962.84;7400513;19;20014;-68
2021/12/06 06:50:48;;;;;;;79.57;42.60;;;;;;;-0.43;96.57;100965.41;7399403;19;20234;-67
2021/12/06 06:53:16;;;;;;;76.03;42.42;;;;;;;-0.43;96.38;100965.41;7396163;19;20024;-67
2021/12/06 06:55:44;;;;;;;72.00;41.80;;;;;;;-0.44;96.40;100969.72;7397827;19;20031;-67
2021/12/06 06:58:13;;;;;;;71.32;41.00;;;;;;;-0.45;96.36;100970.53;7396267;19;20026;-68
2021/12/06 07:00:41;;;;;;;68.57;41.38;;;;;;;-0.46;95.99;100976.50;7399086;19;20382;-67
2021/12/06 07:03:11;;;;;;;68.85;40.60;;;;;;;-0.48;95.61;100978.19;7399238;19;20134;-67
2021/12/06 07:05:42;;;;;;;76.22;43.00;;;;;;;-0.48;95.85;100979.88;7399218;19;20027;-68
2021/12/06 07:08:10;;;;;;;71.68;41.95;;;;;;;-0.48;95.89;100983.34;7397044;19;20425;-68
2021/12/06 07:10:39;;;;;;;72.90;42.97;;;;;;;-0.51;94.98;100978.09;7398776;19;20022;-67
2021/12/06 07:13:10;;;;;;;70.88;40.58;;;;;;;-0.51;95.95;100978.94;7397638;19;20019;-68
2021/12/06 07:15:39;;;;;;;74.80;41.35;;;;;;;-0.50;96.12;100987.59;7399540;19;20010;-68
2021/12/06 07:18:08;;;;;;;76.60;43.00;;;;;;;-0.50;96.31;100991.03;7397051;19;20039;-68
2021/12/06 07:20:37;;;;;;;80.38;44.47;;;;;;;-0.51;96.02;100990.97;7396973;19;20417;-68
2021/12/06 07:23:08;;;;;;;79.32;44.38;;;;;;;-0.49;95.58;100997.06;7398363;19;20022;-68
2021/12/06 07:25:36;;;;;;;67.57;39.83;;;;;;;-0.48;95.73;100985.94;7396011;19;20511;-68
2021/12/06 07:28:06;;;;;;;73.82;41.53;;;;;;;-0.51;95.66;100994.41;7398419;19;20022;-68
2021/12/06 07:30:35;;;;;;;71.60;42.60;;;;;;;-0.48;96.01;100993.66;7395962;19;20027;-68
2021/12/06 07:33:04;;;;;;;74.53;41.97;;;;;;;-0.46;96.06;100999.72;7398100;19;20018;-68
2021/12/06 07:35:32;;;;;;;71.18;41.90;;;;;;;-0.45;96.12;101001.47;7398841;19;20023;-68
2021/12/06 07:38:03;;;;;;;71.95;41.88;;;;;;;-0.45;95.91;101004.03;7395765;19;20429;-68
2021/12/06 07:40:34;;;;;;;70.88;42.10;;;;;;;-0.45;95.88;101008.34;7399128;19;20056;-68
2021/12/06 07:43:03;;;;;;;72.13;42.22;;;;;;;-0.44;95.92;101012.63;7398702;19;20018;-68
2021/12/06 07:45:31;;;;;;;72.95;42.08;;;;;;;-0.45;95.29;101008.34;7398766;19;20040;-68
2021/12/06 07:47:59;;;;;;;72.85;41.30;;;;;;;-0.46;95.23;101006.59;7396243;19;20042;-68
2021/12/06 07:50:27;;;;;;;73.97;40.45;;;;;;;-0.44;96.05;101007.47;7397971;19;20031;-68
2021/12/06 07:52:56;;;;;;;72.05;39.72;;;;;;;-0.43;96.12;101006.66;7396089;19;20019;-68
2021/12/06 07:55:30;;;;;;;72.97;40.13;;;;;;;-0.41;96.35;101005.88;7396102;19;20515;-68
2021/12/06 07:58:01;;;;;;;73.55;41.05;;;;;;;-0.38;96.14;101010.22;7398207;19;20052;-68
2021/12/06 08:00:32;;;;;;;71.97;41.10;;;;;;;-0.37;95.65;101014.56;7398509;19;20018;-68
2021/12/06 08:03:01;;;;;;;84.05;46.83;;;;;;;-0.37;95.77;101012.88;7398122;19;20022;-68
2021/12/06 08:05:33;;;;;;;71.80;42.60;;;;;;;-0.36;96.26;101013.75;7395168;19;20015;-68
2021/12/06 08:08:03;;;;;;;69.68;38.72;;;;;;;-0.35;96.39;101008.63;7395913;19;20006;-68
2021/12/06 08:10:32;;;;;;;66.65;39.17;;;;;;;-0.31;96.07;101011.28;7398128;19;20019;-68
2021/12/06 08:13:03;;;;;;;76.65;40.08;;;;;;;-0.30;95.97;101015.59;7396762;19;20031;-68
2021/12/06 08:15:31;;;;;;;65.75;39.95;;;;;;;-0.30;96.14;101018.16;7396267;19;20378;-68
2021/12/06 08:17:59;;;;;;;65.20;38.33;;;;;;;-0.29;95.82;101023.41;7397057;19;20022;-68
2021/12/06 08:20:28;;;;;;;61.85;38.17;;;;;;;-0.27;96.24;101029.44;7395176;19;20429;-68
2021/12/06 08:22:56;;;;;;;69.40;40.00;;;;;;;-0.26;95.33;101028.63;7395567;19;20475;-68
2021/12/06 08:25:24;;;;;;;64.47;39.30;;;;;;;-0.25;95.78;101032.94;7397020;19;20027;-68
2021/12/06 08:27:53;;;;;;;67.63;39.08;;;;;;;-0.24;95.83;101024.38;7397138;19;20018;-68
2021/12/06 08:30:26;;;;;;;68.85;39.72;;;;;;;-0.24;95.88;101024.38;7395404;19;20011;-68
2021/12/06 08:32:56;;;;;;;70.60;40.05;;;;;;;-0.18;96.00;101032.28;7393637;19;20018;-67
2021/12/06 08:35:26;;;;;;;68.30;39.38;;;;;;;-0.17;95.83;101031.44;7395231;19;20019;-67
2021/12/06 08:37:55;;;;;;;64.80;37.47;;;;;;;-0.15;95.61;101033.19;7396252;19;20019;-67
2021/12/06 08:40:24;;;;;;;67.57;38.15;;;;;;;-0.14;95.63;101030.63;7395750;19;20031;-69
2021/12/06 08:42:52;;;;;;;66.88;39.60;;;;;;;-0.12;95.80;101036.72;7395725;19;20015;-67
2021/12/06 08:45:20;;;;;;;64.93;38.63;;;;;;;-0.09;95.94;101038.50;7396159;19;20488;-68
2021/12/06 08:47:51;;;;;;;67.13;39.38;;;;;;;-0.08;95.50;101040.25;7394168;19;20035;-68
2021/12/06 08:50:24;;;;;;;63.58;36.92;;;;;;;-0.07;95.05;101052.34;7396040;19;20386;-68
2021/12/06 08:52:52;;;;;;;64.05;38.05;;;;;;;-0.06;94.21;101047.22;7394803;19;20014;-67
2021/12/06 08:55:21;;;;;;;62.47;38.13;;;;;;;-0.06;95.06;101051.50;7396116;19;20027;-67
2021/12/06 08:57:50;;;;;;;65.28;38.13;;;;;;;-0.06;94.85;101049.78;7396308;19;20035;-67
2021/12/06 09:00:23;;;;;;;69.40;36.85;;;;;;;-0.04;94.57;101057.56;7394054;19;20017;-66
2021/12/06 09:02:54;;;;;;;62.70;37.03;;;;;;;-0.02;nan;101068.81;7395276;19;20475;-66
2021/12/06 09:05:23;;;;;;;61.63;37.30;;;;;;;0.00;95.34;101064.56;7396913;19;20113;-66
2021/12/06 09:07:51;;;;;;;67.75;38.28;;;;;;;0.03;95.01;101068.94;7395705;19;20010;-66
2021/12/06 09:10:19;;;;;;;60.03;37.83;;;;;;;0.07;95.44;101052.69;7394156;19;20018;-67
2021/12/06 09:12:48;;;;;;;64.30;37.90;;;;;;;0.13;95.79;101058.88;7394494;19;20043;-67
2021/12/06 09:15:19;;;;;;;63.50;36.53;;;;;;;0.21;95.43;101063.38;7394804;19;20074;-66
2021/12/06 09:17:47;;;;;;;57.45;33.90;;;;;;;0.25;95.71;101065.19;7394256;19;20019;-67
2021/12/06 09:20:20;;;;;;;59.15;36.25;;;;;;;0.30;95.48;101059.34;7393827;19;20032;-67
2021/12/06 09:22:49;;;;;;;65.65;37.30;;;;;;;0.36;95.46;101066.34;7393021;19;20384;-67
2021/12/06 09:25:18;;;;;;;60.90;37.33;;;;;;;0.39;95.38;101063.84;7394588;19;20029;-69
2021/12/06 09:28:09;;;;;;;64.53;37.63;;;;;;;0.44;95.64;101072.59;7394620;19;20018;-68
2021/12/06 09:30:50;;;;;;;59.83;35.60;;;;;;;0.44;94.40;101072.59;7392421;19;20475;-67
2021/12/06 09:33:20;;;;;;;56.25;35.00;;;;;;;0.46;94.30;101073.47;7394503;19;20026;-67
2021/12/06 09:35:53;;;;;;;58.40;36.58;;;;;;;0.48;94.79;101071.81;7392160;19;20366;-67
2021/12/06 09:38:27;;;;;;;62.83;36.93;;;;;;;0.52;94.61;101071.88;7392499;19;20483;-67
2021/12/06 09:40:58;;;;;;;58.58;34.70;;;;;;;0.55;94.85;101069.41;7394151;19;20364;-67
2021/12/06 09:43:27;;;;;;;52.85;33.35;;;;;;;0.54;94.48;101067.66;7393145;19;20049;-67
2021/12/06 09:45:57;;;;;;;51.03;32.60;;;;;;;0.56;93.95;101071.16;7393072;19;20040;-67
2021/12/06 09:48:25;;;;;;;55.80;32.50;;;;;;;0.58;94.40;101075.50;7393522;19;20098;-66
2021/12/06 09:51:02;;;;;;;59.47;35.45;;;;;;;0.58;94.28;101074.63;7392953;19;20019;-65
2021/12/06 09:53:33;;;;;;;54.80;33.63;;;;;;;0.62;94.55;101081.59;7393988;19;20026;-66
2021/12/06 09:56:06;;;;;;;56.83;34.75;;;;;;;0.66;94.09;101075.69;7392427;19;20515;-66
2021/12/06 09:58:35;;;;;;;53.45;34.20;;;;;;;0.68;93.96;101078.31;7395029;19;20015;-67
2021/12/06 10:01:11;;;;;;;56.20;34.88;;;;;;;0.67;93.96;101080.03;7394302;19;20026;-65
2021/12/06 10:03:39;;;;;;;55.92;33.55;;;;;;;0.74;94.72;101083.63;7393772;19;20023;-66
2021/12/06 10:06:11;;;;;;;54.88;33.85;;;;;;;0.76;94.04;101082.81;7391519;19;20479;-66
2021/12/06 10:08:44;;;;;;;57.72;34.50;;;;;;;0.80;94.54;101081.19;7393511;19;20521;-67
2021/12/06 10:11:13;;;;;;;57.42;33.20;;;;;;;0.81;93.53;101076.06;7391888;19;20036;-67
2021/12/06 10:13:42;;;;;;;54.95;32.10;;;;;;;0.80;93.62;101071.72;7392159;19;20479;-67
2021/12/06 10:16:11;;;;;;;55.55;33.00;;;;;;;0.85;93.74;101078.69;7393287;19;20018;-68
2021/12/06 10:18:40;;;;;;;54.13;33.88;;;;;;;0.86;94.21;101081.34;7393933;19;20019;-67
2021/12/06 10:21:11;;;;;;;59.30;35.72;;;;;;;0.86;93.88;101077.88;7391800;19;20042;-67
2021/12/06 10:23:42;;;;;;;56.28;34.55;;;;;;;0.89;93.58;101072.78;7393306;19;20018;-67
2021/12/06 10:26:14;;;;;;;56.63;33.75;;;;;;;0.91;93.71;101069.41;7394204;19;20019;-67
2021/12/06 10:28:44;;;;;;;53.15;33.95;;;;;;;0.93;93.75;101072.88;7399853;19;20034;-67
2021/12/06 10:31:14;;;;;;;57.25;35.08;;;;;;;0.97;94.23;101064.38;7398363;19;20406;-67
2021/12/06 10:33:45;;;;;;;57.67;32.55;;;;;;;0.97;94.25;101058.31;7399470;19;20061;-68
2021/12/06 10:36:19;;;;;;;69.35;39.70;;;;;;;1.05;94.57;101067.13;7397909;19;20023;-69
2021/12/06 10:38:52;;;;;;;;;;;;;;;1.09;94.26;101058.59;7402728;19;20039;-67
2021/12/06 10:41:25;;;;;;;49.88;31.17;;;;;;;1.12;93.22;101052.63;7400877;19;19918;-66
2021/12/06 10:43:56;;;;;;;57.28;33.40;;;;;;;1.16;93.66;101053.56;7399231;19;20022;-66
2021/12/06 10:46:24;;;;;;;52.53;32.00;;;;;;;1.18;93.25;101044.16;7401369;19;20421;-67
2021/12/06 10:48:56;;;;;;;50.65;32.13;;;;;;;1.19;94.04;101040.69;7397682;19;20022;-66
2021/12/06 10:51:27;;;;;;;57.22;32.38;;;;;;;1.23;94.17;101037.34;7400379;19;20022;-66
2021/12/06 10:54:02;;;;;;;56.60;32.55;;;;;;;1.26;93.38;101040.00;7397911;19;20035;-67
2021/12/06 10:56:42;;;;;;;54.78;33.50;;;;;;;1.29;93.74;101034.91;7399851;19;20482;-66
2021/12/06 10:59:15;;;;;;;48.78;30.63;;;;;;;1.34;94.13;101034.97;7400166;19;20044;-66
2021/12/06 11:01:45;;;;;;;49.67;30.15;;;;;;;1.37;93.47;101032.47;7398101;19;20390;-67
2021/12/06 11:04:17;;;;;;;51.63;31.02;;;;;;;1.40;93.66;101040.28;7397338;19;20018;-67
2021/12/06 11:06:50;;;;;;;51.33;31.63;;;;;;;1.42;94.25;101041.19;7397665;19;20026;-67
2021/12/06 11:09:20;;;;;;;46.90;28.17;;;;;;;1.45;93.65;101039.56;7397636;19;20022;-67
2021/12/06 11:11:51;;;;;;;46.75;29.35;;;;;;;1.49;92.98;101029.25;7399096;19;20022;-65
2021/12/06 11:14:22;;;;;;;51.10;30.52;;;;;;;1.49;93.20;101031.84;7397856;19;20014;-67
2021/12/06 11:16:53;;;;;;;46.75;28.90;;;;;;;1.52;93.42;101037.94;7397726;19;20040;-67
2021/12/06 11:19:23;;;;;;;45.33;28.52;;;;;;;1.54;93.17;101030.22;7397051;19;20357;-67
2021/12/06 11:21:56;;;;;;;47.38;29.00;;;;;;;1.53;93.50;101026.78;7400191;19;20018;-67
2021/12/06 11:24:26;;;;;;;47.22;29.42;;;;;;;1.56;93.83;101019.06;7396608;19;20037;-67
2021/12/06 11:27:03;;;;;;;53.05;28.63;;;;;;;1.60;93.86;101027.75;7395977;19;20479;-71
2021/12/06 11:29:35;;;;;;;47.95;29.27;;;;;;;1.61;93.56;101022.59;7399030;19;20020;-66
2021/12/06 11:32:08;;;;;;;45.28;27.88;;;;;;;1.62;93.35;101024.34;7395384;19;20089;-67